sensor_id;sensor_type;location;lat;lon;timestamp;P1;durP1;ratioP1;P2;durP2;ratioP2
6251;SDS011;3159;52.414;9.784;2022-12-18T00:02:13;64.90;;;30.80;;
6251;SDS011;3159;52.414;9.784;2022-12-18T00:04:39;44.30;;;21.43;;
6251;SDS011;3159;52.414;9.784;2022-12-18T00:07:08;38.07;;;23.17;;
6251;SDS011;3159;52.414;9.784;2022-12-18T00:09:35;41.23;;;22.30;;
6251;SDS011;3159;52.414;9.784;2022-12-18T00:12:02;30.77;;;18.17;;
6251;SDS011;3159;52.414;9.784;2022-12-18T00:14:29;34.10;;;18.37;;
6251;SDS011;3159;52.414;9.784;2022-12-18T00:16:56;30.47;;;18.13;;
6251;SDS011;3159;52.414;9.784;2022-12-18T00:19:25;29.17;;;16.63;;
6251;SDS011;3159;52.414;9.784;2022-12-18T00:21:52;28.53;;;16.10;;
6251;SDS011;3159;52.414;9.784;2022-12-18T00:24:20;23.77;;;14.47;;
6251;SDS011;3159;52.414;9.784;2022-12-18T00:26:47;19.23;;;13.17;;
6251;SDS011;3159;52.414;9.784;2022-12-18T00:29:14;24.83;;;13.80;;
6251;SDS011;3159;52.414;9.784;2022-12-18T00:31:41;20.77;;;12.73;;
6251;SDS011;3159;52.414;9.784;2022-12-18T00:34:09;18.57;;;12.67;;
6251;SDS011;3159;52.414;9.784;2022-12-18T00:36:36;20.90;;;13.37;;
6251;SDS011;3159;52.414;9.784;2022-12-18T00:39:04;21.33;;;13.60;;
6251;SDS011;3159;52.414;9.784;2022-12-18T00:41:32;22.00;;;12.40;;
6251;SDS011;3159;52.414;9.784;2022-12-18T00:44:17;22.33;;;13.40;;
6251;SDS011;3159;52.414;9.784;2022-12-18T00:46:45;18.37;;;12.23;;
6251;SDS011;3159;52.414;9.784;2022-12-18T00:49:13;19.10;;;12.17;;
6251;SDS011;3159;52.414;9.784;2022-12-18T00:51:40;19.10;;;12.07;;
6251;SDS011;3159;52.414;9.784;2022-12-18T00:54:07;22.67;;;12.30;;
6251;SDS011;3159;52.414;9.784;2022-12-18T00:56:36;25.20;;;12.73;;
6251;SDS011;3159;52.414;9.784;2022-12-18T00:59:03;19.53;;;12.07;;
6251;SDS011;3159;52.414;9.784;2022-12-18T01:01:30;17.83;;;11.40;;
6251;SDS011;3159;52.414;9.784;2022-12-18T01:03:59;23.37;;;12.20;;
6251;SDS011;3159;52.414;9.784;2022-12-18T01:06:26;19.63;;;11.83;;
6251;SDS011;3159;52.414;9.784;2022-12-18T01:08:53;23.47;;;11.87;;
6251;SDS011;3159;52.414;9.784;2022-12-18T01:11:20;19.57;;;10.70;;
6251;SDS011;3159;52.414;9.784;2022-12-18T01:13:49;18.07;;;11.47;;
6251;SDS011;3159;52.414;9.784;2022-12-18T01:16:18;21.50;;;11.37;;
6251;SDS011;3159;52.414;9.784;2022-12-18T01:18:45;18.37;;;11.67;;
6251;SDS011;3159;52.414;9.784;2022-12-18T01:21:13;15.20;;;10.63;;
6251;SDS011;3159;52.414;9.784;2022-12-18T01:23:42;17.50;;;10.80;;
6251;SDS011;3159;52.414;9.784;2022-12-18T01:26:13;17.20;;;11.20;;
6251;SDS011;3159;52.414;9.784;2022-12-18T01:28:41;17.37;;;11.10;;
6251;SDS011;3159;52.414;9.784;2022-12-18T01:31:12;17.00;;;10.97;;
6251;SDS011;3159;52.414;9.784;2022-12-18T01:33:41;17.97;;;10.37;;
6251;SDS011;3159;52.414;9.784;2022-12-18T01:36:14;19.37;;;10.90;;
6251;SDS011;3159;52.414;9.784;2022-12-18T01:38:42;19.80;;;11.00;;
6251;SDS011;3159;52.414;9.784;2022-12-18T01:41:09;19.00;;;11.07;;
6251;SDS011;3159;52.414;9.784;2022-12-18T01:43:43;17.83;;;10.33;;
6251;SDS011;3159;52.414;9.784;2022-12-18T01:46:13;13.60;;;9.77;;
6251;SDS011;3159;52.414;9.784;2022-12-18T01:48:40;16.77;;;10.53;;
6251;SDS011;3159;52.414;9.784;2022-12-18T01:51:09;22.33;;;11.17;;
6251;SDS011;3159;52.414;9.784;2022-12-18T01:53:37;16.87;;;10.57;;
6251;SDS011;3159;52.414;9.784;2022-12-18T01:56:06;18.70;;;10.57;;
6251;SDS011;3159;52.414;9.784;2022-12-18T01:58:35;16.23;;;10.87;;
6251;SDS011;3159;52.414;9.784;2022-12-18T02:01:09;18.93;;;10.70;;
6251;SDS011;3159;52.414;9.784;2022-12-18T02:03:40;16.53;;;10.83;;
6251;SDS011;3159;52.414;9.784;2022-12-18T02:06:08;18.03;;;11.07;;
6251;SDS011;3159;52.414;9.784;2022-12-18T02:08:40;18.37;;;10.33;;
6251;SDS011;3159;52.414;9.784;2022-12-18T02:11:13;16.83;;;10.57;;
6251;SDS011;3159;52.414;9.784;2022-12-18T02:13:50;16.53;;;9.97;;
6251;SDS011;3159;52.414;9.784;2022-12-18T02:16:27;14.43;;;10.17;;
6251;SDS011;3159;52.414;9.784;2022-12-18T02:19:03;15.00;;;10.33;;
6251;SDS011;3159;52.414;9.784;2022-12-18T02:21:42;19.73;;;10.53;;
6251;SDS011;3159;52.414;9.784;2022-12-18T02:24:17;15.20;;;10.77;;
6251;SDS011;3159;52.414;9.784;2022-12-18T02:26:56;19.07;;;10.90;;
6251;SDS011;3159;52.414;9.784;2022-12-18T02:29:26;19.53;;;11.20;;
6251;SDS011;3159;52.414;9.784;2022-12-18T02:31:56;20.60;;;10.80;;
6251;SDS011;3159;52.414;9.784;2022-12-18T02:34:28;16.63;;;10.70;;
6251;SDS011;3159;52.414;9.784;2022-12-18T02:36:57;17.57;;;10.80;;
6251;SDS011;3159;52.414;9.784;2022-12-18T02:39:26;17.53;;;10.33;;
6251;SDS011;3159;52.414;9.784;2022-12-18T02:41:57;17.10;;;10.33;;
6251;SDS011;3159;52.414;9.784;2022-12-18T02:44:24;16.43;;;11.53;;
6251;SDS011;3159;52.414;9.784;2022-12-18T02:46:52;17.90;;;10.90;;
6251;SDS011;3159;52.414;9.784;2022-12-18T02:49:22;17.77;;;11.00;;
6251;SDS011;3159;52.414;9.784;2022-12-18T02:51:59;17.60;;;11.37;;
6251;SDS011;3159;52.414;9.784;2022-12-18T02:54:35;20.43;;;10.97;;
6251;SDS011;3159;52.414;9.784;2022-12-18T02:57:20;20.03;;;10.93;;
6251;SDS011;3159;52.414;9.784;2022-12-18T02:59:53;17.10;;;10.20;;
6251;SDS011;3159;52.414;9.784;2022-12-18T03:02:26;16.47;;;10.43;;
6251;SDS011;3159;52.414;9.784;2022-12-18T03:05:01;19.93;;;10.77;;
6251;SDS011;3159;52.414;9.784;2022-12-18T03:07:34;18.27;;;10.73;;
6251;SDS011;3159;52.414;9.784;2022-12-18T03:10:04;16.70;;;10.13;;
6251;SDS011;3159;52.414;9.784;2022-12-18T03:12:37;19.00;;;9.67;;
6251;SDS011;3159;52.414;9.784;2022-12-18T03:15:09;18.87;;;10.53;;
6251;SDS011;3159;52.414;9.784;2022-12-18T03:17:40;15.17;;;9.37;;
6251;SDS011;3159;52.414;9.784;2022-12-18T03:20:12;15.97;;;9.83;;
6251;SDS011;3159;52.414;9.784;2022-12-18T03:22:43;15.47;;;10.27;;
6251;SDS011;3159;52.414;9.784;2022-12-18T03:25:13;16.90;;;9.37;;
6251;SDS011;3159;52.414;9.784;2022-12-18T03:27:44;16.60;;;10.10;;
6251;SDS011;3159;52.414;9.784;2022-12-18T03:30:15;15.17;;;9.37;;
6251;SDS011;3159;52.414;9.784;2022-12-18T03:32:44;15.03;;;9.63;;
6251;SDS011;3159;52.414;9.784;2022-12-18T03:35:16;14.77;;;9.50;;
6251;SDS011;3159;52.414;9.784;2022-12-18T03:37:45;17.33;;;9.40;;
6251;SDS011;3159;52.414;9.784;2022-12-18T03:40:12;15.30;;;9.93;;
6251;SDS011;3159;52.414;9.784;2022-12-18T03:42:42;17.83;;;9.67;;
6251;SDS011;3159;52.414;9.784;2022-12-18T03:45:18;16.60;;;9.97;;
6251;SDS011;3159;52.414;9.784;2022-12-18T03:47:51;19.20;;;9.97;;
6251;SDS011;3159;52.414;9.784;2022-12-18T03:50:26;14.27;;;9.63;;
6251;SDS011;3159;52.414;9.784;2022-12-18T03:53:02;16.13;;;9.23;;
6251;SDS011;3159;52.414;9.784;2022-12-18T03:55:35;14.33;;;10.17;;
6251;SDS011;3159;52.414;9.784;2022-12-18T03:58:04;17.20;;;9.67;;
6251;SDS011;3159;52.414;9.784;2022-12-18T04:00:33;16.60;;;9.37;;
6251;SDS011;3159;52.414;9.784;2022-12-18T04:03:01;16.20;;;9.43;;
6251;SDS011;3159;52.414;9.784;2022-12-18T04:05:30;15.00;;;9.90;;
6251;SDS011;3159;52.414;9.784;2022-12-18T04:07:59;15.87;;;9.77;;
6251;SDS011;3159;52.414;9.784;2022-12-18T04:10:27;12.30;;;9.03;;
6251;SDS011;3159;52.414;9.784;2022-12-18T04:12:55;16.90;;;10.03;;
6251;SDS011;3159;52.414;9.784;2022-12-18T04:15:23;17.40;;;9.90;;
6251;SDS011;3159;52.414;9.784;2022-12-18T04:17:50;16.23;;;9.77;;
6251;SDS011;3159;52.414;9.784;2022-12-18T04:20:17;13.17;;;9.00;;
6251;SDS011;3159;52.414;9.784;2022-12-18T04:22:44;15.33;;;9.33;;
6251;SDS011;3159;52.414;9.784;2022-12-18T04:25:11;13.87;;;9.40;;
6251;SDS011;3159;52.414;9.784;2022-12-18T04:27:38;15.10;;;9.43;;
6251;SDS011;3159;52.414;9.784;2022-12-18T04:30:05;15.53;;;9.83;;
6251;SDS011;3159;52.414;9.784;2022-12-18T04:32:34;12.90;;;9.63;;
6251;SDS011;3159;52.414;9.784;2022-12-18T04:35:02;14.97;;;9.80;;
6251;SDS011;3159;52.414;9.784;2022-12-18T04:37:31;14.53;;;9.03;;
6251;SDS011;3159;52.414;9.784;2022-12-18T04:39:58;16.33;;;9.87;;
6251;SDS011;3159;52.414;9.784;2022-12-18T04:42:25;14.43;;;9.30;;
6251;SDS011;3159;52.414;9.784;2022-12-18T04:44:52;13.80;;;9.53;;
6251;SDS011;3159;52.414;9.784;2022-12-18T04:47:18;14.13;;;9.90;;
6251;SDS011;3159;52.414;9.784;2022-12-18T04:49:47;14.77;;;9.50;;
6251;SDS011;3159;52.414;9.784;2022-12-18T04:52:13;14.53;;;9.10;;
6251;SDS011;3159;52.414;9.784;2022-12-18T04:54:40;12.23;;;8.87;;
6251;SDS011;3159;52.414;9.784;2022-12-18T04:57:07;13.50;;;9.60;;
6251;SDS011;3159;52.414;9.784;2022-12-18T04:59:34;14.40;;;9.37;;
6251;SDS011;3159;52.414;9.784;2022-12-18T05:02:00;17.37;;;9.93;;
6251;SDS011;3159;52.414;9.784;2022-12-18T05:04:27;15.27;;;9.80;;
6251;SDS011;3159;52.414;9.784;2022-12-18T05:06:55;14.00;;;9.23;;
6251;SDS011;3159;52.414;9.784;2022-12-18T05:09:22;17.23;;;10.17;;
6251;SDS011;3159;52.414;9.784;2022-12-18T05:11:49;17.80;;;9.77;;
6251;SDS011;3159;52.414;9.784;2022-12-18T05:14:16;17.17;;;9.93;;
6251;SDS011;3159;52.414;9.784;2022-12-18T05:16:43;15.97;;;10.07;;
6251;SDS011;3159;52.414;9.784;2022-12-18T05:19:09;15.70;;;9.67;;
6251;SDS011;3159;52.414;9.784;2022-12-18T05:21:36;19.27;;;10.03;;
6251;SDS011;3159;52.414;9.784;2022-12-18T05:24:05;14.70;;;8.70;;
6251;SDS011;3159;52.414;9.784;2022-12-18T05:26:32;18.33;;;10.27;;
6251;SDS011;3159;52.414;9.784;2022-12-18T05:28:59;14.90;;;9.90;;
6251;SDS011;3159;52.414;9.784;2022-12-18T05:31:25;13.53;;;9.27;;
6251;SDS011;3159;52.414;9.784;2022-12-18T05:33:52;14.87;;;9.17;;
6251;SDS011;3159;52.414;9.784;2022-12-18T05:36:19;13.10;;;9.20;;
6251;SDS011;3159;52.414;9.784;2022-12-18T05:38:46;13.77;;;9.37;;
6251;SDS011;3159;52.414;9.784;2022-12-18T05:41:14;14.07;;;8.97;;
6251;SDS011;3159;52.414;9.784;2022-12-18T05:43:41;14.23;;;9.37;;
6251;SDS011;3159;52.414;9.784;2022-12-18T05:46:10;17.50;;;10.13;;
6251;SDS011;3159;52.414;9.784;2022-12-18T05:48:38;17.43;;;9.87;;
6251;SDS011;3159;52.414;9.784;2022-12-18T05:51:06;15.57;;;9.53;;
6251;SDS011;3159;52.414;9.784;2022-12-18T05:53:34;14.97;;;8.97;;
6251;SDS011;3159;52.414;9.784;2022-12-18T05:56:02;15.30;;;8.67;;
6251;SDS011;3159;52.414;9.784;2022-12-18T05:58:32;18.47;;;9.90;;
6251;SDS011;3159;52.414;9.784;2022-12-18T06:01:05;14.20;;;9.03;;
6251;SDS011;3159;52.414;9.784;2022-12-18T06:03:33;15.63;;;9.87;;
6251;SDS011;3159;52.414;9.784;2022-12-18T06:06:00;16.93;;;8.93;;
6251;SDS011;3159;52.414;9.784;2022-12-18T06:08:27;12.97;;;8.43;;
6251;SDS011;3159;52.414;9.784;2022-12-18T06:10:54;13.20;;;8.87;;
6251;SDS011;3159;52.414;9.784;2022-12-18T06:13:21;19.77;;;11.68;;
6251;SDS011;3159;52.414;9.784;2022-12-18T06:15:50;15.20;;;10.30;;
6251;SDS011;3159;52.414;9.784;2022-12-18T06:18:16;15.73;;;9.57;;
6251;SDS011;3159;52.414;9.784;2022-12-18T06:20:43;18.73;;;10.13;;
6251;SDS011;3159;52.414;9.784;2022-12-18T06:23:10;15.20;;;8.67;;
6251;SDS011;3159;52.414;9.784;2022-12-18T06:25:37;13.93;;;8.87;;
6251;SDS011;3159;52.414;9.784;2022-12-18T06:28:05;13.53;;;9.07;;
6251;SDS011;3159;52.414;9.784;2022-12-18T06:30:31;15.27;;;8.97;;
6251;SDS011;3159;52.414;9.784;2022-12-18T06:33:00;15.60;;;9.47;;
6251;SDS011;3159;52.414;9.784;2022-12-18T06:35:26;14.73;;;9.30;;
6251;SDS011;3159;52.414;9.784;2022-12-18T06:37:53;16.03;;;9.57;;
6251;SDS011;3159;52.414;9.784;2022-12-18T06:40:20;13.37;;;9.20;;
6251;SDS011;3159;52.414;9.784;2022-12-18T06:42:47;14.57;;;8.90;;
6251;SDS011;3159;52.414;9.784;2022-12-18T06:45:14;12.50;;;8.40;;
6251;SDS011;3159;52.414;9.784;2022-12-18T06:47:40;12.87;;;8.80;;
6251;SDS011;3159;52.414;9.784;2022-12-18T06:50:09;12.80;;;8.50;;
6251;SDS011;3159;52.414;9.784;2022-12-18T06:52:36;14.60;;;8.20;;
6251;SDS011;3159;52.414;9.784;2022-12-18T06:55:04;14.20;;;8.87;;
6251;SDS011;3159;52.414;9.784;2022-12-18T06:57:35;12.50;;;8.73;;
6251;SDS011;3159;52.414;9.784;2022-12-18T07:00:02;11.87;;;8.47;;
6251;SDS011;3159;52.414;9.784;2022-12-18T07:02:30;16.53;;;9.43;;
6251;SDS011;3159;52.414;9.784;2022-12-18T07:04:57;26.57;;;16.47;;
6251;SDS011;3159;52.414;9.784;2022-12-18T07:07:26;27.30;;;15.20;;
6251;SDS011;3159;52.414;9.784;2022-12-18T07:09:52;16.60;;;11.53;;
6251;SDS011;3159;52.414;9.784;2022-12-18T07:12:19;17.83;;;10.87;;
6251;SDS011;3159;52.414;9.784;2022-12-18T07:14:46;16.33;;;11.20;;
6251;SDS011;3159;52.414;9.784;2022-12-18T07:17:13;19.67;;;10.77;;
6251;SDS011;3159;52.414;9.784;2022-12-18T07:19:39;15.60;;;11.07;;
6251;SDS011;3159;52.414;9.784;2022-12-18T07:22:06;17.30;;;10.13;;
6251;SDS011;3159;52.414;9.784;2022-12-18T07:24:34;14.10;;;10.23;;
6251;SDS011;3159;52.414;9.784;2022-12-18T07:27:01;11.87;;;8.67;;
6251;SDS011;3159;52.414;9.784;2022-12-18T07:29:28;14.20;;;9.17;;
6251;SDS011;3159;52.414;9.784;2022-12-18T07:31:55;15.57;;;9.57;;
6251;SDS011;3159;52.414;9.784;2022-12-18T07:34:22;16.07;;;10.03;;
6251;SDS011;3159;52.414;9.784;2022-12-18T07:36:49;15.07;;;9.67;;
6251;SDS011;3159;52.414;9.784;2022-12-18T07:39:16;20.50;;;13.33;;
6251;SDS011;3159;52.414;9.784;2022-12-18T07:41:44;23.93;;;13.73;;
6251;SDS011;3159;52.414;9.784;2022-12-18T07:44:31;17.87;;;11.77;;
6251;SDS011;3159;52.414;9.784;2022-12-18T07:46:58;13.83;;;10.20;;
6251;SDS011;3159;52.414;9.784;2022-12-18T07:49:25;15.20;;;9.70;;
6251;SDS011;3159;52.414;9.784;2022-12-18T07:51:53;15.87;;;9.13;;
6251;SDS011;3159;52.414;9.784;2022-12-18T07:54:21;12.50;;;8.40;;
6251;SDS011;3159;52.414;9.784;2022-12-18T07:56:49;13.53;;;9.37;;
6251;SDS011;3159;52.414;9.784;2022-12-18T07:59:16;14.03;;;9.57;;
6251;SDS011;3159;52.414;9.784;2022-12-18T08:01:43;15.77;;;9.67;;
6251;SDS011;3159;52.414;9.784;2022-12-18T08:04:10;17.00;;;9.77;;
6251;SDS011;3159;52.414;9.784;2022-12-18T08:06:37;15.17;;;10.47;;
6251;SDS011;3159;52.414;9.784;2022-12-18T08:09:04;14.60;;;10.60;;
6251;SDS011;3159;52.414;9.784;2022-12-18T08:11:31;15.23;;;10.20;;
6251;SDS011;3159;52.414;9.784;2022-12-18T08:14:00;12.63;;;9.30;;
6251;SDS011;3159;52.414;9.784;2022-12-18T08:16:26;12.93;;;9.23;;
6251;SDS011;3159;52.414;9.784;2022-12-18T08:18:53;15.73;;;9.60;;
6251;SDS011;3159;52.414;9.784;2022-12-18T08:21:21;22.87;;;12.10;;
6251;SDS011;3159;52.414;9.784;2022-12-18T08:23:50;16.60;;;11.17;;
6251;SDS011;3159;52.414;9.784;2022-12-18T08:26:17;14.90;;;8.97;;
6251;SDS011;3159;52.414;9.784;2022-12-18T08:28:45;14.27;;;8.93;;
6251;SDS011;3159;52.414;9.784;2022-12-18T08:31:13;17.00;;;9.07;;
6251;SDS011;3159;52.414;9.784;2022-12-18T08:33:40;16.00;;;9.60;;
6251;SDS011;3159;52.414;9.784;2022-12-18T08:36:07;23.50;;;9.43;;
6251;SDS011;3159;52.414;9.784;2022-12-18T08:38:35;14.03;;;10.10;;
6251;SDS011;3159;52.414;9.784;2022-12-18T08:41:03;22.00;;;11.80;;
6251;SDS011;3159;52.414;9.784;2022-12-18T08:43:31;19.30;;;11.23;;
6251;SDS011;3159;52.414;9.784;2022-12-18T08:46:17;13.83;;;9.60;;
6251;SDS011;3159;52.414;9.784;2022-12-18T08:48:44;14.30;;;9.97;;
6251;SDS011;3159;52.414;9.784;2022-12-18T08:51:11;14.37;;;8.47;;
6251;SDS011;3159;52.414;9.784;2022-12-18T08:53:38;12.37;;;8.27;;
6251;SDS011;3159;52.414;9.784;2022-12-18T08:56:05;14.47;;;8.93;;
6251;SDS011;3159;52.414;9.784;2022-12-18T08:58:32;16.23;;;8.97;;
6251;SDS011;3159;52.414;9.784;2022-12-18T09:00:59;15.10;;;8.33;;
6251;SDS011;3159;52.414;9.784;2022-12-18T09:03:28;13.10;;;8.57;;
6251;SDS011;3159;52.414;9.784;2022-12-18T09:05:55;13.67;;;9.57;;
6251;SDS011;3159;52.414;9.784;2022-12-18T09:08:22;15.67;;;9.20;;
6251;SDS011;3159;52.414;9.784;2022-12-18T09:10:49;15.30;;;9.10;;
6251;SDS011;3159;52.414;9.784;2022-12-18T09:13:16;19.80;;;10.87;;
6251;SDS011;3159;52.414;9.784;2022-12-18T09:15:44;17.10;;;9.47;;
6251;SDS011;3159;52.414;9.784;2022-12-18T09:18:12;15.77;;;10.87;;
6251;SDS011;3159;52.414;9.784;2022-12-18T09:20:41;16.17;;;9.50;;
6251;SDS011;3159;52.414;9.784;2022-12-18T09:23:09;16.67;;;9.97;;
6251;SDS011;3159;52.414;9.784;2022-12-18T09:25:37;18.07;;;9.37;;
6251;SDS011;3159;52.414;9.784;2022-12-18T09:28:05;15.50;;;9.37;;
6251;SDS011;3159;52.414;9.784;2022-12-18T09:30:36;16.87;;;8.60;;
6251;SDS011;3159;52.414;9.784;2022-12-18T09:33:03;14.43;;;10.03;;
6251;SDS011;3159;52.414;9.784;2022-12-18T09:35:30;19.57;;;9.13;;
6251;SDS011;3159;52.414;9.784;2022-12-18T09:37:58;11.30;;;8.60;;
6251;SDS011;3159;52.414;9.784;2022-12-18T09:40:25;15.20;;;9.53;;
6251;SDS011;3159;52.414;9.784;2022-12-18T09:42:59;12.43;;;8.27;;
6251;SDS011;3159;52.414;9.784;2022-12-18T09:45:30;14.50;;;8.80;;
6251;SDS011;3159;52.414;9.784;2022-12-18T09:48:05;13.77;;;8.50;;
6251;SDS011;3159;52.414;9.784;2022-12-18T09:50:32;13.57;;;8.47;;
6251;SDS011;3159;52.414;9.784;2022-12-18T09:53:05;11.53;;;8.50;;
6251;SDS011;3159;52.414;9.784;2022-12-18T09:55:39;14.50;;;8.63;;
6251;SDS011;3159;52.414;9.784;2022-12-18T09:58:12;11.63;;;7.83;;
6251;SDS011;3159;52.414;9.784;2022-12-18T10:00:42;12.73;;;8.47;;
6251;SDS011;3159;52.414;9.784;2022-12-18T10:03:10;15.53;;;8.50;;
6251;SDS011;3159;52.414;9.784;2022-12-18T10:05:41;12.13;;;8.30;;
6251;SDS011;3159;52.414;9.784;2022-12-18T10:08:17;12.13;;;8.30;;
6251;SDS011;3159;52.414;9.784;2022-12-18T10:10:51;13.63;;;8.23;;
6251;SDS011;3159;52.414;9.784;2022-12-18T10:13:21;13.87;;;9.07;;
6251;SDS011;3159;52.414;9.784;2022-12-18T10:16:00;13.63;;;9.20;;
6251;SDS011;3159;52.414;9.784;2022-12-18T10:18:50;13.77;;;8.47;;
6251;SDS011;3159;52.414;9.784;2022-12-18T10:21:30;15.93;;;9.50;;
6251;SDS011;3159;52.414;9.784;2022-12-18T10:24:08;14.80;;;10.37;;
6251;SDS011;3159;52.414;9.784;2022-12-18T10:26:44;14.10;;;9.57;;
6251;SDS011;3159;52.414;9.784;2022-12-18T10:29:18;16.30;;;8.93;;
6251;SDS011;3159;52.414;9.784;2022-12-18T10:31:45;18.67;;;10.50;;
6251;SDS011;3159;52.414;9.784;2022-12-18T10:34:14;24.60;;;14.60;;
6251;SDS011;3159;52.414;9.784;2022-12-18T10:36:41;16.63;;;11.27;;
6251;SDS011;3159;52.414;9.784;2022-12-18T10:39:17;15.53;;;8.30;;
6251;SDS011;3159;52.414;9.784;2022-12-18T10:41:44;13.00;;;9.33;;
6251;SDS011;3159;52.414;9.784;2022-12-18T10:44:16;14.57;;;8.63;;
6251;SDS011;3159;52.414;9.784;2022-12-18T10:46:45;10.20;;;7.30;;
6251;SDS011;3159;52.414;9.784;2022-12-18T10:49:19;10.57;;;8.03;;
6251;SDS011;3159;52.414;9.784;2022-12-18T10:51:49;11.73;;;7.77;;
6251;SDS011;3159;52.414;9.784;2022-12-18T10:54:19;13.03;;;7.47;;
6251;SDS011;3159;52.414;9.784;2022-12-18T10:56:48;13.17;;;7.93;;
6251;SDS011;3159;52.414;9.784;2022-12-18T10:59:16;12.13;;;7.87;;
6251;SDS011;3159;52.414;9.784;2022-12-18T11:01:48;9.67;;;7.40;;
6251;SDS011;3159;52.414;9.784;2022-12-18T11:04:18;11.03;;;7.53;;
6251;SDS011;3159;52.414;9.784;2022-12-18T11:06:57;13.00;;;7.50;;
6251;SDS011;3159;52.414;9.784;2022-12-18T11:09:27;14.07;;;9.43;;
6251;SDS011;3159;52.414;9.784;2022-12-18T11:11:57;10.27;;;7.60;;
6251;SDS011;3159;52.414;9.784;2022-12-18T11:14:26;18.77;;;8.30;;
6251;SDS011;3159;52.414;9.784;2022-12-18T11:16:55;15.50;;;9.87;;
6251;SDS011;3159;52.414;9.784;2022-12-18T11:19:33;22.43;;;12.53;;
6251;SDS011;3159;52.414;9.784;2022-12-18T11:22:02;13.47;;;9.83;;
6251;SDS011;3159;52.414;9.784;2022-12-18T11:24:49;10.87;;;8.33;;
6251;SDS011;3159;52.414;9.784;2022-12-18T11:27:19;19.70;;;12.13;;
6251;SDS011;3159;52.414;9.784;2022-12-18T11:29:47;13.00;;;10.30;;
6251;SDS011;3159;52.414;9.784;2022-12-18T11:32:22;18.40;;;10.17;;
6251;SDS011;3159;52.414;9.784;2022-12-18T11:34:57;13.53;;;8.80;;
6251;SDS011;3159;52.414;9.784;2022-12-18T11:37:29;12.27;;;9.07;;
6251;SDS011;3159;52.414;9.784;2022-12-18T11:39:59;17.93;;;10.33;;
6251;SDS011;3159;52.414;9.784;2022-12-18T11:42:32;13.97;;;9.37;;
6251;SDS011;3159;52.414;9.784;2022-12-18T11:45:03;13.13;;;8.73;;
6251;SDS011;3159;52.414;9.784;2022-12-18T11:47:48;16.37;;;9.63;;
6251;SDS011;3159;52.414;9.784;2022-12-18T11:50:20;13.90;;;9.17;;
6251;SDS011;3159;52.414;9.784;2022-12-18T11:52:50;19.87;;;10.70;;
6251;SDS011;3159;52.414;9.784;2022-12-18T11:55:19;13.20;;;8.57;;
6251;SDS011;3159;52.414;9.784;2022-12-18T11:57:54;12.93;;;8.00;;
6251;SDS011;3159;52.414;9.784;2022-12-18T12:00:32;13.53;;;8.70;;
6251;SDS011;3159;52.414;9.784;2022-12-18T12:03:16;15.97;;;9.10;;
6251;SDS011;3159;52.414;9.784;2022-12-18T12:05:55;15.20;;;9.03;;
6251;SDS011;3159;52.414;9.784;2022-12-18T12:08:32;14.60;;;10.00;;
6251;SDS011;3159;52.414;9.784;2022-12-18T12:11:11;19.70;;;10.63;;
6251;SDS011;3159;52.414;9.784;2022-12-18T12:13:49;17.73;;;10.20;;
6251;SDS011;3159;52.414;9.784;2022-12-18T12:16:22;16.70;;;8.70;;
6251;SDS011;3159;52.414;9.784;2022-12-18T12:18:59;16.33;;;9.37;;
6251;SDS011;3159;52.414;9.784;2022-12-18T12:21:35;19.23;;;10.50;;
6251;SDS011;3159;52.414;9.784;2022-12-18T12:24:11;18.13;;;10.47;;
6251;SDS011;3159;52.414;9.784;2022-12-18T12:26:56;17.70;;;11.40;;
6251;SDS011;3159;52.414;9.784;2022-12-18T12:29:33;11.73;;;7.87;;
6251;SDS011;3159;52.414;9.784;2022-12-18T12:32:11;15.87;;;7.67;;
6251;SDS011;3159;52.414;9.784;2022-12-18T12:34:51;16.23;;;8.93;;
6251;SDS011;3159;52.414;9.784;2022-12-18T12:37:32;13.90;;;8.27;;
6251;SDS011;3159;52.414;9.784;2022-12-18T12:40:06;14.13;;;8.00;;
6251;SDS011;3159;52.414;9.784;2022-12-18T12:42:39;19.00;;;11.20;;
6251;SDS011;3159;52.414;9.784;2022-12-18T12:45:29;16.27;;;9.03;;
6251;SDS011;3159;52.414;9.784;2022-12-18T12:48:00;17.20;;;10.20;;
6251;SDS011;3159;52.414;9.784;2022-12-18T12:50:28;16.57;;;10.63;;
6251;SDS011;3159;52.414;9.784;2022-12-18T12:53:00;14.00;;;9.10;;
6251;SDS011;3159;52.414;9.784;2022-12-18T12:55:31;20.50;;;11.70;;
6251;SDS011;3159;52.414;9.784;2022-12-18T12:58:06;23.13;;;10.43;;
6251;SDS011;3159;52.414;9.784;2022-12-18T13:00:40;18.07;;;9.07;;
6251;SDS011;3159;52.414;9.784;2022-12-18T13:03:20;15.73;;;9.47;;
6251;SDS011;3159;52.414;9.784;2022-12-18T13:05:58;16.93;;;9.40;;
6251;SDS011;3159;52.414;9.784;2022-12-18T13:08:27;15.77;;;9.07;;
6251;SDS011;3159;52.414;9.784;2022-12-18T13:10:55;19.27;;;9.70;;
6251;SDS011;3159;52.414;9.784;2022-12-18T13:13:49;17.73;;;10.40;;
6251;SDS011;3159;52.414;9.784;2022-12-18T13:16:18;16.53;;;9.80;;
6251;SDS011;3159;52.414;9.784;2022-12-18T13:18:48;17.77;;;10.17;;
6251;SDS011;3159;52.414;9.784;2022-12-18T13:21:18;17.97;;;10.50;;
6251;SDS011;3159;52.414;9.784;2022-12-18T13:23:49;20.07;;;10.30;;
6251;SDS011;3159;52.414;9.784;2022-12-18T13:26:30;20.87;;;11.57;;
6251;SDS011;3159;52.414;9.784;2022-12-18T13:28:59;23.10;;;12.30;;
6251;SDS011;3159;52.414;9.784;2022-12-18T13:34:35;28.30;;;12.50;;
6251;SDS011;3159;52.414;9.784;2022-12-18T13:43:22;19.43;;;11.00;;
6251;SDS011;3159;52.414;9.784;2022-12-18T13:46:16;20.57;;;11.13;;
6251;SDS011;3159;52.414;9.784;2022-12-18T13:48:49;23.10;;;12.83;;
6251;SDS011;3159;52.414;9.784;2022-12-18T13:51:21;20.77;;;11.83;;
6251;SDS011;3159;52.414;9.784;2022-12-18T13:53:50;25.00;;;12.80;;
6251;SDS011;3159;52.414;9.784;2022-12-18T13:56:21;22.70;;;12.50;;
6251;SDS011;3159;52.414;9.784;2022-12-18T13:59:03;20.50;;;11.77;;
6251;SDS011;3159;52.414;9.784;2022-12-18T14:01:42;25.53;;;12.97;;
6251;SDS011;3159;52.414;9.784;2022-12-18T14:04:18;28.40;;;13.33;;
6251;SDS011;3159;52.414;9.784;2022-12-18T14:06:47;22.53;;;13.13;;
6251;SDS011;3159;52.414;9.784;2022-12-18T14:09:17;29.37;;;13.50;;
6251;SDS011;3159;52.414;9.784;2022-12-18T14:11:48;30.43;;;14.03;;
6251;SDS011;3159;52.414;9.784;2022-12-18T14:14:15;22.23;;;12.47;;
6251;SDS011;3159;52.414;9.784;2022-12-18T14:16:44;31.00;;;14.90;;
6251;SDS011;3159;52.414;9.784;2022-12-18T14:19:13;29.73;;;14.23;;
6251;SDS011;3159;52.414;9.784;2022-12-18T14:21:45;22.67;;;12.83;;
6251;SDS011;3159;52.414;9.784;2022-12-18T14:24:13;25.47;;;13.73;;
6251;SDS011;3159;52.414;9.784;2022-12-18T14:26:42;19.00;;;13.07;;
6251;SDS011;3159;52.414;9.784;2022-12-18T14:29:22;26.20;;;12.87;;
6251;SDS011;3159;52.414;9.784;2022-12-18T14:32:09;20.27;;;13.53;;
6251;SDS011;3159;52.414;9.784;2022-12-18T14:34:37;24.60;;;13.67;;
6251;SDS011;3159;52.414;9.784;2022-12-18T14:37:04;25.97;;;15.47;;
6251;SDS011;3159;52.414;9.784;2022-12-18T14:39:32;32.67;;;17.67;;
6251;SDS011;3159;52.414;9.784;2022-12-18T14:41:58;30.53;;;18.20;;
6251;SDS011;3159;52.414;9.784;2022-12-18T14:44:25;24.23;;;13.83;;
6251;SDS011;3159;52.414;9.784;2022-12-18T14:46:52;27.33;;;16.10;;
6251;SDS011;3159;52.414;9.784;2022-12-18T14:49:21;22.33;;;13.67;;
6251;SDS011;3159;52.414;9.784;2022-12-18T14:51:50;25.77;;;15.80;;
6251;SDS011;3159;52.414;9.784;2022-12-18T14:54:20;26.43;;;16.40;;
6251;SDS011;3159;52.414;9.784;2022-12-18T14:56:48;25.90;;;15.00;;
6251;SDS011;3159;52.414;9.784;2022-12-18T14:59:21;25.63;;;16.33;;
6251;SDS011;3159;52.414;9.784;2022-12-18T15:01:54;26.40;;;15.53;;
6251;SDS011;3159;52.414;9.784;2022-12-18T15:04:27;32.97;;;16.67;;
6251;SDS011;3159;52.414;9.784;2022-12-18T15:07:08;26.63;;;16.50;;
6251;SDS011;3159;52.414;9.784;2022-12-18T15:09:39;27.30;;;15.93;;
6251;SDS011;3159;52.414;9.784;2022-12-18T15:12:19;27.17;;;15.57;;
6251;SDS011;3159;52.414;9.784;2022-12-18T15:14:54;24.87;;;16.20;;
6251;SDS011;3159;52.414;9.784;2022-12-18T15:17:21;26.90;;;16.47;;
6251;SDS011;3159;52.414;9.784;2022-12-18T15:19:51;27.87;;;17.27;;
6251;SDS011;3159;52.414;9.784;2022-12-18T15:22:21;27.47;;;16.50;;
6251;SDS011;3159;52.414;9.784;2022-12-18T15:24:50;32.40;;;16.13;;